Time;durP1;ratioP1;P1;durP2;ratioP2;P2;SDS_P1;SDS_P2;PMS_P1;PMS_P2;Temp;Humidity;BMP_temperature;BMP_pressure;BME280_temperature;BME280_humidity;BME280_pressure;Samples;Min_cycle;Max_cycle;Signal;HPM_P1;HPM_P2
2023/09/16 00:02:38;;;;;;;0.10;0.10;;;;;;;;;;6280595;28;20055;-81
2023/09/16 00:05:38;;;;;;;0.10;0.10;;;;;;;;;;6285913;28;20027;-80
2023/09/16 00:08:39;;;;;;;0.10;0.10;;;;;;;;;;6288924;28;20457;-81
2023/09/16 00:11:40;;;;;;;0.10;0.10;;;;;;;;;;6275860;28;20020;-81
2023/09/16 00:14:40;;;;;;;0.10;0.10;;;;;;;;;;6269664;28;20056;-81
2023/09/16 00:17:40;;;;;;;0.17;0.17;;;;;;;;;;6283770;28;20026;-81
2023/09/16 00:20:41;;;;;;;0.10;0.10;;;;;;;;;;6284611;28;20016;-82
2023/09/16 00:23:42;;;;;;;0.10;0.10;;;;;;;;;;6305951;28;20095;-81
2023/09/16 00:26:42;;;;;;;0.10;0.10;;;;;;;;;;6279186;28;20052;-80
2023/09/16 00:29:42;;;;;;;0.13;0.13;;;;;;;;;;6315983;28;20081;-80
2023/09/16 00:32:43;;;;;;;0.10;0.10;;;;;;;;;;6295291;28;20027;-81
2023/09/16 00:35:43;;;;;;;0.10;0.10;;;;;;;;;;6284301;28;20027;-81
2023/09/16 00:38:43;;;;;;;0.20;0.20;;;;;;;;;;6315329;28;20429;-80
2023/09/16 00:41:44;;;;;;;0.20;0.20;;;;;;;;;;6311419;28;20019;-81
2023/09/16 00:44:44;;;;;;;0.20;0.20;;;;;;;;;;6290421;28;20012;-81
2023/09/16 00:47:44;;;;;;;0.20;0.20;;;;;;;;;;6317284;28;20013;-81
2023/09/16 00:50:45;;;;;;;0.10;0.10;;;;;;;;;;6297170;28;20048;-81
2023/09/16 00:53:45;;;;;;;0.10;0.10;;;;;;;;;;6287355;28;20096;-80
2023/09/16 00:56:46;;;;;;;0.20;0.20;;;;;;;;;;6301820;28;20020;-80
2023/09/16 00:59:46;;;;;;;0.10;0.10;;;;;;;;;;6318466;28;20372;-80
2023/09/16 01:02:46;;;;;;;0.10;0.10;;;;;;;;;;6305409;28;20016;-86
2023/09/16 01:05:47;;;;;;;0.10;0.10;;;;;;;;;;6302848;28;20445;-87
2023/09/16 01:08:47;;;;;;;0.20;0.20;;;;;;;;;;6278540;28;20051;-86
2023/09/16 01:11:47;;;;;;;0.20;0.20;;;;;;;;;;6303173;28;20016;-86
2023/09/16 01:14:49;;;;;;;0.10;0.10;;;;;;;;;;6285744;28;20044;-86
2023/09/16 01:17:54;;;;;;;0.10;0.10;;;;;;;;;;6295985;28;20546;-86
2023/09/16 01:20:55;;;;;;;0.10;0.10;;;;;;;;;;6296160;28;20020;-86
2023/09/16 01:24:14;;;;;;;0.10;0.10;;;;;;;;;;6292912;28;20035;-86
2023/09/16 01:27:15;;;;;;;0.10;0.10;;;;;;;;;;6304682;28;20469;-86
2023/09/16 01:30:15;;;;;;;0.10;0.10;;;;;;;;;;6303689;28;20070;-86
2023/09/16 01:33:24;;;;;;;0.10;0.10;;;;;;;;;;6308724;28;20181;-86
2023/09/16 01:36:27;;;;;;;0.10;0.10;;;;;;;;;;6295479;28;20024;-86
2023/09/16 01:39:29;;;;;;;0.20;0.20;;;;;;;;;;6306403;28;20028;-86
2023/09/16 01:42:30;;;;;;;0.20;0.20;;;;;;;;;;6308121;28;20028;-86
2023/09/16 01:45:40;;;;;;;0.10;0.10;;;;;;;;;;6282491;28;20032;-86
2023/09/16 01:48:41;;;;;;;0.10;0.10;;;;;;;;;;6285354;28;20020;-86
2023/09/16 01:51:41;;;;;;;0.13;0.13;;;;;;;;;;6304799;28;20020;-86
2023/09/16 01:54:41;;;;;;;0.10;0.10;;;;;;;;;;6288772;28;20104;-87
2023/09/16 01:57:41;;;;;;;0.10;0.10;;;;;;;;;;6280084;28;20019;-87
2023/09/16 02:00:42;;;;;;;0.10;0.10;;;;;;;;;;6300569;28;20027;-86
2023/09/16 02:03:42;;;;;;;0.20;0.20;;;;;;;;;;6298469;28;20059;-86
2023/09/16 02:06:46;;;;;;;0.10;0.10;;;;;;;;;;6294342;28;20086;-82
2023/09/16 02:09:46;;;;;;;0.20;0.20;;;;;;;;;;6267249;28;20139;-82
2023/09/16 02:12:46;;;;;;;0.10;0.10;;;;;;;;;;6293868;28;20016;-82
2023/09/16 02:15:47;;;;;;;0.10;0.10;;;;;;;;;;6300998;28;20021;-82
2023/09/16 02:18:48;;;;;;;0.20;0.20;;;;;;;;;;6274703;28;20557;-82
2023/09/16 02:21:48;;;;;;;0.10;0.10;;;;;;;;;;6270392;28;20855;-82
2023/09/16 02:24:48;;;;;;;0.10;0.10;;;;;;;;;;6300072;28;20518;-82
2023/09/16 02:27:49;;;;;;;0.20;0.20;;;;;;;;;;6262535;28;20063;-82
2023/09/16 02:30:49;;;;;;;0.20;0.20;;;;;;;;;;6302365;28;20071;-82
2023/09/16 02:33:49;;;;;;;0.10;0.10;;;;;;;;;;6291892;28;20055;-83
2023/09/16 02:36:49;;;;;;;0.20;0.20;;;;;;;;;;6298532;28;20477;-82
2023/09/16 02:39:50;;;;;;;0.20;0.20;;;;;;;;;;6305182;28;20385;-82
2023/09/16 02:42:50;;;;;;;0.10;0.10;;;;;;;;;;6296814;28;20454;-82
2023/09/16 02:45:50;;;;;;;0.20;0.20;;;;;;;;;;6286486;28;20023;-83
2023/09/16 02:48:51;;;;;;;0.10;0.10;;;;;;;;;;6311474;28;20024;-82
2023/09/16 02:51:52;;;;;;;0.10;0.10;;;;;;;;;;6314943;28;20125;-82
2023/09/16 02:54:52;;;;;;;0.10;0.10;;;;;;;;;;6270049;28;20548;-82
2023/09/16 02:57:53;;;;;;;0.10;0.10;;;;;;;;;;6291978;28;20517;-83
2023/09/16 03:00:53;;;;;;;0.20;0.20;;;;;;;;;;6270381;28;20499;-82
2023/09/16 03:03:53;;;;;;;0.10;0.10;;;;;;;;;;6290961;28;20024;-82
2023/09/16 03:06:54;;;;;;;0.10;0.10;;;;;;;;;;6293554;28;20084;-83
2023/09/16 03:09:54;;;;;;;0.10;0.10;;;;;;;;;;6280489;28;20017;-83
2023/09/16 03:12:54;;;;;;;0.10;0.10;;;;;;;;;;6279427;28;20486;-83
2023/09/16 03:16:13;;;;;;;0.10;0.10;;;;;;;;;;6273547;28;20025;-83
2023/09/16 03:19:16;;;;;;;0.10;0.10;;;;;;;;;;6265608;28;20052;-83
2023/09/16 03:22:16;;;;;;;0.20;0.20;;;;;;;;;;6274592;28;20024;-83
2023/09/16 03:25:16;;;;;;;0.10;0.10;;;;;;;;;;6290058;28;20075;-83
2023/09/16 03:28:17;;;;;;;0.20;0.20;;;;;;;;;;6292798;28;20807;-83
2023/09/16 03:31:17;;;;;;;0.10;0.10;;;;;;;;;;6306537;28;20020;-83
2023/09/16 03:34:17;;;;;;;0.20;0.20;;;;;;;;;;6307755;28;20032;-83
2023/09/16 03:37:18;;;;;;;0.10;0.10;;;;;;;;;;6295761;28;20031;-83
2023/09/16 03:40:18;;;;;;;0.10;0.10;;;;;;;;;;6295227;28;20024;-84
2023/09/16 03:43:18;;;;;;;0.10;0.10;;;;;;;;;;6291244;28;20020;-83
2023/09/16 03:46:18;;;;;;;0.20;0.20;;;;;;;;;;6296628;28;20055;-83
2023/09/16 03:49:18;;;;;;;0.10;0.10;;;;;;;;;;6268323;28;20070;-83
2023/09/16 03:52:19;;;;;;;0.13;0.13;;;;;;;;;;6302053;28;20553;-83
2023/09/16 03:55:19;;;;;;;0.10;0.10;;;;;;;;;;6312954;28;20070;-83
2023/09/16 03:58:19;;;;;;;0.20;0.20;;;;;;;;;;6294234;28;20027;-84
2023/09/16 04:01:20;;;;;;;0.10;0.10;;;;;;;;;;6304013;28;20035;-83
2023/09/16 04:04:20;;;;;;;0.10;0.10;;;;;;;;;;6283569;28;20027;-84
2023/09/16 04:07:21;;;;;;;0.20;0.20;;;;;;;;;;6294241;28;20177;-84
2023/09/16 04:10:21;;;;;;;0.10;0.10;;;;;;;;;;6280043;28;20398;-83
2023/09/16 04:13:22;;;;;;;0.10;0.10;;;;;;;;;;6280974;28;20259;-83
2023/09/16 04:16:25;;;;;;;0.10;0.10;;;;;;;;;;6278276;28;20025;-83
2023/09/16 04:19:25;;;;;;;0.20;0.20;;;;;;;;;;6280297;28;20039;-83
2023/09/16 04:22:25;;;;;;;0.10;0.10;;;;;;;;;;6274015;28;20078;-84
2023/09/16 04:25:25;;;;;;;0.10;0.10;;;;;;;;;;6295535;28;20035;-86
2023/09/16 04:28:26;;;;;;;0.10;0.10;;;;;;;;;;6279505;28;20024;-83
2023/09/16 04:31:26;;;;;;;0.10;0.10;;;;;;;;;;6309487;28;20089;-83
2023/09/16 04:34:26;;;;;;;0.10;0.10;;;;;;;;;;6273392;28;20024;-83
2023/09/16 04:37:26;;;;;;;0.10;0.10;;;;;;;;;;6294566;28;20107;-83
2023/09/16 04:40:27;;;;;;;0.10;0.10;;;;;;;;;;6289732;28;20036;-84
2023/09/16 04:43:27;;;;;;;0.20;0.20;;;;;;;;;;6270463;28;20588;-84
2023/09/16 04:46:28;;;;;;;0.20;0.20;;;;;;;;;;6276595;28;20025;-83
2023/09/16 04:49:28;;;;;;;0.17;0.17;;;;;;;;;;6294539;28;20059;-84
2023/09/16 04:52:29;;;;;;;0.10;0.10;;;;;;;;;;6277257;28;20028;-83
2023/09/16 04:55:29;;;;;;;0.10;0.10;;;;;;;;;;6289438;28;20033;-83
2023/09/16 04:58:31;;;;;;;0.10;0.10;;;;;;;;;;6297269;28;20024;-83
2023/09/16 05:01:31;;;;;;;0.10;0.10;;;;;;;;;;6303320;28;20028;-82
2023/09/16 05:04:32;;;;;;;0.10;0.10;;;;;;;;;;6299198;28;20019;-83
2023/09/16 05:07:32;;;;;;;0.20;0.20;;;;;;;;;;6289107;28;20049;-83
2023/09/16 05:10:32;;;;;;;0.10;0.10;;;;;;;;;;6267197;28;20025;-83
2023/09/16 05:13:33;;;;;;;0.10;0.10;;;;;;;;;;6275120;28;20035;-83
2023/09/16 05:16:33;;;;;;;0.10;0.10;;;;;;;;;;6288878;28;20032;-83
2023/09/16 05:19:33;;;;;;;0.10;0.10;;;;;;;;;;6274733;28;20517;-83
2023/09/16 05:22:34;;;;;;;0.10;0.10;;;;;;;;;;6277261;28;20028;-82
2023/09/16 05:25:34;;;;;;;0.10;0.10;;;;;;;;;;6281979;28;20021;-82
2023/09/16 05:28:34;;;;;;;0.10;0.10;;;;;;;;;;6275449;28;20367;-82
2023/09/16 05:31:34;;;;;;;0.10;0.10;;;;;;;;;;6296824;28;20031;-82
2023/09/16 05:34:35;;;;;;;0.10;0.10;;;;;;;;;;6279454;28;20024;-82
2023/09/16 05:37:35;;;;;;;0.10;0.10;;;;;;;;;;6296525;28;20107;-82
2023/09/16 05:40:36;;;;;;;0.10;0.10;;;;;;;;;;6297575;28;20040;-82
2023/09/16 05:43:36;;;;;;;0.10;0.10;;;;;;;;;;6278785;28;20482;-82
2023/09/16 05:46:36;;;;;;;0.10;0.10;;;;;;;;;;6303100;28;20278;-82
2023/09/16 05:49:37;;;;;;;0.10;0.10;;;;;;;;;;6303839;28;20027;-82
2023/09/16 05:52:37;;;;;;;0.10;0.10;;;;;;;;;;6274382;28;20506;-82
2023/09/16 05:55:40;;;;;;;0.10;0.10;;;;;;;;;;6281297;28;20029;-82
2023/09/16 05:58:40;;;;;;;0.10;0.10;;;;;;;;;;6294145;28;20024;-82
2023/09/16 06:01:41;;;;;;;0.00;0.00;;;;;;;;;;6303775;28;20024;-82
2023/09/16 06:04:41;;;;;;;0.10;0.10;;;;;;;;;;6287811;28;20024;-82
2023/09/16 06:07:42;;;;;;;0.10;0.10;;;;;;;;;;6279473;28;20059;-82
2023/09/16 06:10:42;;;;;;;0.03;0.03;;;;;;;;;;6285942;28;20017;-82
2023/09/16 06:13:42;;;;;;;0.10;0.10;;;;;;;;;;6282208;28;20451;-82
2023/09/16 06:16:43;;;;;;;0.10;0.10;;;;;;;;;;6272256;28;20044;-83
2023/09/16 06:19:43;;;;;;;0.10;0.10;;;;;;;;;;6292783;28;20540;-82
2023/09/16 06:22:43;;;;;;;0.00;0.00;;;;;;;;;;6294783;28;20028;-82
2023/09/16 06:25:43;;;;;;;0.00;0.00;;;;;;;;;;6287791;28;20016;-85
2023/09/16 06:28:44;;;;;;;0.00;0.00;;;;;;;;;;6282071;28;20021;-81
2023/09/16 06:31:44;;;;;;;0.10;0.10;;;;;;;;;;6258341;28;20025;-82
2023/09/16 06:34:45;;;;;;;0.00;0.00;;;;;;;;;;6274799;28;20115;-82
2023/09/16 06:37:45;;;;;;;0.00;0.00;;;;;;;;;;6276735;28;20079;-82
2023/09/16 06:40:45;;;;;;;0.00;0.00;;;;;;;;;;6286407;28;20066;-82
2023/09/16 06:43:46;;;;;;;0.00;0.00;;;;;;;;;;6274205;28;20020;-82
2023/09/16 06:46:46;;;;;;;0.10;0.10;;;;;;;;;;6279677;28;20050;-82
2023/09/16 06:49:46;;;;;;;0.10;0.10;;;;;;;;;;6299836;28;20509;-82
2023/09/16 06:52:46;;;;;;;0.00;0.00;;;;;;;;;;6281811;28;20092;-82
2023/09/16 06:55:50;;;;;;;0.00;0.00;;;;;;;;;;6283993;28;20015;-82
2023/09/16 06:58:50;;;;;;;0.00;0.00;;;;;;;;;;6278584;28;20025;-84
2023/09/16 07:01:50;;;;;;;0.10;0.10;;;;;;;;;;6301088;28;20025;-82
2023/09/16 07:04:50;;;;;;;0.00;0.00;;;;;;;;;;6268485;28;20025;-84
2023/09/16 07:07:52;;;;;;;0.00;0.00;;;;;;;;;;6271231;28;20048;-82
2023/09/16 07:10:54;;;;;;;0.00;0.00;;;;;;;;;;6279832;28;20012;-83
2023/09/16 07:13:54;;;;;;;;;;;;;;;;;;6282268;28;20028;-82
2023/09/16 07:16:55;;;;;;;0.00;0.00;;;;;;;;;;6300092;28;19916;-82
2023/09/16 07:19:55;;;;;;;0.00;0.00;;;;;;;;;;6296895;28;20024;-82
2023/09/16 07:22:56;;;;;;;0.00;0.00;;;;;;;;;;6304612;28;20035;-82
2023/09/16 07:25:57;;;;;;;0.00;0.00;;;;;;;;;;6282789;28;20027;-82
2023/09/16 07:28:58;;;;;;;0.00;0.00;;;;;;;;;;6258902;28;20024;-82
2023/09/16 07:31:58;;;;;;;0.00;0.00;;;;;;;;;;6304923;28;20052;-82
2023/09/16 07:35:08;;;;;;;0.00;0.00;;;;;;;;;;6276419;28;20024;-82
2023/09/16 07:38:09;;;;;;;0.00;0.00;;;;;;;;;;6275231;28;20566;-82
2023/09/16 07:41:10;;;;;;;0.00;0.00;;;;;;;;;;6280513;28;20025;-82
2023/09/16 07:44:11;;;;;;;0.00;0.00;;;;;;;;;;6266089;28;20031;-82
2023/09/16 07:47:11;;;;;;;0.00;0.00;;;;;;;;;;6275644;28;20028;-81
2023/09/16 07:50:12;;;;;;;0.00;0.00;;;;;;;;;;6290136;28;20113;-82
2023/09/16 07:53:12;;;;;;;0.00;0.00;;;;;;;;;;6272119;28;20047;-81
2023/09/16 07:56:16;;;;;;;0.00;0.00;;;;;;;;;;6295384;28;20481;-88
2023/09/16 07:59:20;;;;;;;0.00;0.00;;;;;;;;;;6304196;28;20378;-88
2023/09/16 08:02:24;;;;;;;0.00;0.00;;;;;;;;;;6265093;28;20021;-88
2023/09/16 08:05:27;;;;;;;0.00;0.00;;;;;;;;;;6279278;28;20028;-88
2023/09/16 08:08:37;;;;;;;0.00;0.00;;;;;;;;;;6252250;28;20119;-88
2023/09/16 08:11:37;;;;;;;0.00;0.00;;;;;;;;;;6255414;28;20049;-88
2023/09/16 08:14:37;;;;;;;0.00;0.00;;;;;;;;;;6243773;28;20035;-88
2023/09/16 08:17:41;;;;;;;0.00;0.00;;;;;;;;;;6255971;28;20021;-88
2023/09/16 08:20:44;;;;;;;0.00;0.00;;;;;;;;;;6253545;28;20458;-88
2023/09/16 08:23:45;;;;;;;0.00;0.00;;;;;;;;;;6233503;28;20021;-89
2023/09/16 08:26:45;;;;;;;0.00;0.00;;;;;;;;;;6257886;28;20024;-88
2023/09/16 08:29:50;;;;;;;0.00;0.00;;;;;;;;;;6276019;28;20014;-89
2023/09/16 08:32:50;;;;;;;0.00;0.00;;;;;;;;;;6266151;28;20459;-89
2023/09/16 08:35:51;;;;;;;0.00;0.00;;;;;;;;;;6255699;28;20013;-88
2023/09/16 08:38:51;;;;;;;0.00;0.00;;;;;;;;;;6248896;28;20408;-88
2023/09/16 08:41:59;;;;;;;0.00;0.00;;;;;;;;;;6249561;28;20012;-88
2023/09/16 08:45:03;;;;;;;0.00;0.00;;;;;;;;;;6278170;28;20016;-88
2023/09/16 08:48:09;;;;;;;0.00;0.00;;;;;;;;;;6263777;28;20742;-89
2023/09/16 08:51:11;;;;;;;0.00;0.00;;;;;;;;;;6288413;28;20016;-89
2023/09/16 08:54:12;;;;;;;0.00;0.00;;;;;;;;;;6279301;28;20375;-88
2023/09/16 08:57:13;;;;;;;0.00;0.00;;;;;;;;;;6261481;28;20368;-88
2023/09/16 09:00:14;;;;;;;0.00;0.00;;;;;;;;;;6246999;28;20025;-89
2023/09/16 09:03:14;;;;;;;0.00;0.00;;;;;;;;;;6268281;28;20216;-88
2023/09/16 09:06:16;;;;;;;0.00;0.00;;;;;;;;;;6256010;28;20572;-83
2023/09/16 09:09:17;;;;;;;0.00;0.00;;;;;;;;;;6287953;28;20070;-82
2023/09/16 09:12:17;;;;;;;0.00;0.00;;;;;;;;;;6279897;28;20494;-83
2023/09/16 09:15:18;;;;;;;0.00;0.00;;;;;;;;;;6293691;28;20091;-83
2023/09/16 09:18:18;;;;;;;0.00;0.00;;;;;;;;;;6301480;28;20489;-83
2023/09/16 09:21:19;;;;;;;0.00;0.00;;;;;;;;;;6287116;28;20035;-82
2023/09/16 09:24:19;;;;;;;0.00;0.00;;;;;;;;;;6299449;28;20377;-82
2023/09/16 09:27:19;;;;;;;0.00;0.00;;;;;;;;;;6271797;28;20027;-82
2023/09/16 09:30:24;;;;;;;0.00;0.00;;;;;;;;;;6301917;28;20177;-83
2023/09/16 09:33:25;;;;;;;0.00;0.00;;;;;;;;;;6290252;28;20104;-83
2023/09/16 09:36:27;;;;;;;0.00;0.00;;;;;;;;;;6278316;28;20029;-83
2023/09/16 09:39:27;;;;;;;0.00;0.00;;;;;;;;;;6292496;28;20816;-83
2023/09/16 09:42:27;;;;;;;0.00;0.00;;;;;;;;;;6269065;28;20028;-82
2023/09/16 09:45:29;;;;;;;0.00;0.00;;;;;;;;;;6277008;28;20055;-83
2023/09/16 09:48:30;;;;;;;0.00;0.00;;;;;;;;;;6289692;28;20481;-83
2023/09/16 09:51:30;;;;;;;0.00;0.00;;;;;;;;;;6283406;28;20020;-83
2023/09/16 09:54:31;;;;;;;0.00;0.00;;;;;;;;;;6276768;28;20254;-82
2023/09/16 09:57:32;;;;;;;0.00;0.00;;;;;;;;;;6289658;28;20012;-82
2023/09/16 10:00:32;;;;;;;;;;;;;;;;;;6286504;28;20031;-83
2023/09/16 10:03:33;;;;;;;0.00;0.00;;;;;;;;;;6294590;28;19959;-82
2023/09/16 10:06:33;;;;;;;0.00;0.00;;;;;;;;;;6296438;28;20036;-83
2023/09/16 10:09:33;;;;;;;0.00;0.00;;;;;;;;;;6279788;28;20023;-83
2023/09/16 10:12:33;;;;;;;0.00;0.00;;;;;;;;;;6264421;28;20021;-84
2023/09/16 10:15:35;;;;;;;0.00;0.00;;;;;;;;;;6273904;28;20085;-83
2023/09/16 10:18:39;;;;;;;0.00;0.00;;;;;;;;;;6297589;28;20027;-83
2023/09/16 10:21:39;;;;;;;0.00;0.00;;;;;;;;;;6295825;28;21072;-83
2023/09/16 10:24:41;;;;;;;0.00;0.00;;;;;;;;;;6290610;28;20020;-83
2023/09/16 10:27:47;;;;;;;0.00;0.00;;;;;;;;;;6273457;28;20827;-83
2023/09/16 10:30:48;;;;;;;0.00;0.00;;;;;;;;;;6278614;28;20418;-83
2023/09/16 10:33:48;;;;;;;0.00;0.00;;;;;;;;;;6283963;28;20012;-83
2023/09/16 10:36:48;;;;;;;0.00;0.00;;;;;;;;;;6271657;28;20145;-84
2023/09/16 10:39:49;;;;;;;0.00;0.00;;;;;;;;;;6303576;28;20069;-83
2023/09/16 10:42:50;;;;;;;0.00;0.00;;;;;;;;;;6286561;28;20016;-83
2023/09/16 10:45:50;;;;;;;0.00;0.00;;;;;;;;;;6266117;28;20108;-83
2023/09/16 10:48:51;;;;;;;0.00;0.00;;;;;;;;;;6278976;28;20017;-84
2023/09/16 10:51:53;;;;;;;0.00;0.00;;;;;;;;;;6300900;28;20059;-84
2023/09/16 10:54:59;;;;;;;0.00;0.00;;;;;;;;;;6278809;28;20028;-83
2023/09/16 10:58:22;;;;;;;0.00;0.00;;;;;;;;;;6278614;28;20464;-83
2023/09/16 11:01:38;;;;;;;0.00;0.00;;;;;;;;;;6281134;28;20032;-82
2023/09/16 11:04:38;;;;;;;0.00;0.00;;;;;;;;;;6275933;28;20460;-82
2023/09/16 11:07:39;;;;;;;0.00;0.00;;;;;;;;;;6312923;28;20032;-82
2023/09/16 11:10:39;;;;;;;0.00;0.00;;;;;;;;;;6294167;28;20023;-82
2023/09/16 11:13:40;;;;;;;0.00;0.00;;;;;;;;;;6270895;28;20080;-82
2023/09/16 11:16:43;;;;;;;0.00;0.00;;;;;;;;;;6288643;28;20103;-83
2023/09/16 11:19:44;;;;;;;0.00;0.00;;;;;;;;;;6292084;28;20269;-82
2023/09/16 11:22:47;;;;;;;0.00;0.00;;;;;;;;;;6292006;28;20016;-82
2023/09/16 11:25:47;;;;;;;0.00;0.00;;;;;;;;;;6291511;28;20025;-89
2023/09/16 11:28:47;;;;;;;0.00;0.00;;;;;;;;;;6303571;28;20020;-89
2023/09/16 11:31:48;;;;;;;0.00;0.00;;;;;;;;;;6273508;28;20087;-89
2023/09/16 11:34:49;;;;;;;0.00;0.00;;;;;;;;;;6305229;28;20021;-89
2023/09/16 11:37:50;;;;;;;0.00;0.00;;;;;;;;;;6286969;28;20112;-89
2023/09/16 11:40:50;;;;;;;0.00;0.00;;;;;;;;;;6276718;28;20013;-90
2023/09/16 11:43:51;;;;;;;0.00;0.00;;;;;;;;;;6277342;28;20047;-90
2023/09/16 11:46:52;;;;;;;0.00;0.00;;;;;;;;;;6271363;28;20028;-90
2023/09/16 11:49:52;;;;;;;0.00;0.00;;;;;;;;;;6276934;28;20045;-90
2023/09/16 11:52:53;;;;;;;0.00;0.00;;;;;;;;;;6285127;28;20008;-90
2023/09/16 11:55:56;;;;;;;0.00;0.00;;;;;;;;;;6267257;28;20020;-89
2023/09/16 11:59:00;;;;;;;0.00;0.00;;;;;;;;;;6283703;28;20012;-90
2023/09/16 12:02:00;;;;;;;0.00;0.00;;;;;;;;;;6286595;28;20096;-90
2023/09/16 12:05:03;;;;;;;0.00;0.00;;;;;;;;;;6284199;28;20027;-90
2023/09/16 12:08:04;;;;;;;0.00;0.00;;;;;;;;;;6287700;28;20040;-90
2023/09/16 12:11:05;;;;;;;0.00;0.00;;;;;;;;;;6269215;28;20027;-90
2023/09/16 12:14:07;;;;;;;0.00;0.00;;;;;;;;;;6266828;28;20081;-90
2023/09/16 12:17:08;;;;;;;0.00;0.00;;;;;;;;;;6276594;28;20031;-88
2023/09/16 12:20:09;;;;;;;0.00;0.00;;;;;;;;;;6285352;28;20048;-89
2023/09/16 12:23:12;;;;;;;0.00;0.00;;;;;;;;;;6274109;28;20024;-90
2023/09/16 12:26:12;;;;;;;0.00;0.00;;;;;;;;;;6285345;28;20656;-91
2023/09/16 12:29:12;;;;;;;0.00;0.00;;;;;;;;;;6273270;28;20028;-89
2023/09/16 12:32:21;;;;;;;0.00;0.00;;;;;;;;;;6288684;28;20118;-90
2023/09/16 12:35:21;;;;;;;0.00;0.00;;;;;;;;;;6270453;28;20020;-85
2023/09/16 12:38:22;;;;;;;0.00;0.00;;;;;;;;;;6271028;28;20608;-90
2023/09/16 12:41:25;;;;;;;0.00;0.00;;;;;;;;;;6295860;28;20024;-90
2023/09/16 12:44:25;;;;;;;0.00;0.00;;;;;;;;;;6287391;28;20446;-90
2023/09/16 12:47:26;;;;;;;0.00;0.00;;;;;;;;;;6285545;28;20025;-91
2023/09/16 12:50:26;;;;;;;0.00;0.00;;;;;;;;;;6264183;28;20023;-91
2023/09/16 12:53:27;;;;;;;0.00;0.00;;;;;;;;;;6288341;28;20027;-91
2023/09/16 12:56:30;;;;;;;0.00;0.00;;;;;;;;;;6293772;28;20027;-90
2023/09/16 12:59:30;;;;;;;0.00;0.00;;;;;;;;;;6284850;28;20032;-90
2023/09/16 13:02:32;;;;;;;0.00;0.00;;;;;;;;;;6300514;28;20493;-90
2023/09/16 13:05:32;;;;;;;0.00;0.00;;;;;;;;;;6300001;28;20482;-91
2023/09/16 13:08:33;;;;;;;0.00;0.00;;;;;;;;;;6271648;28;20048;-90
2023/09/16 13:11:33;;;;;;;0.00;0.00;;;;;;;;;;6278310;28;20100;-90
2023/09/16 13:14:36;;;;;;;0.00;0.00;;;;;;;;;;6291732;28;20039;-91
2023/09/16 13:17:37;;;;;;;0.00;0.00;;;;;;;;;;6291518;28;20024;-91
2023/09/16 13:20:40;;;;;;;0.00;0.00;;;;;;;;;;6261249;28;20032;-90
2023/09/16 13:23:51;;;;;;;0.00;0.00;;;;;;;;;;6275142;28;20052;-91
2023/09/16 13:26:54;;;;;;;0.00;0.00;;;;;;;;;;6269755;28;20768;-90
2023/09/16 13:30:00;;;;;;;0.00;0.00;;;;;;;;;;6280010;28;20027;-91
2023/09/16 13:33:00;;;;;;;0.00;0.00;;;;;;;;;;6269725;28;20124;-90
2023/09/16 13:36:00;;;;;;;0.00;0.00;;;;;;;;;;6284762;28;20493;-90
2023/09/16 13:39:03;;;;;;;0.00;0.00;;;;;;;;;;6287336;28;20019;-90
2023/09/16 13:42:03;;;;;;;0.00;0.00;;;;;;;;;;6288752;28;20041;-91
2023/09/16 13:45:04;;;;;;;0.00;0.00;;;;;;;;;;6281577;28;20021;-90
2023/09/16 13:48:10;;;;;;;0.00;0.00;;;;;;;;;;6300340;28;20662;-83
2023/09/16 13:51:11;;;;;;;0.00;0.00;;;;;;;;;;6275721;28;20055;-83
2023/09/16 13:54:11;;;;;;;0.00;0.00;;;;;;;;;;6284741;28;20432;-83
2023/09/16 13:57:14;;;;;;;0.00;0.00;;;;;;;;;;6286903;28;20025;-83
2023/09/16 14:00:14;;;;;;;0.00;0.00;;;;;;;;;;6301272;28;20035;-84
2023/09/16 14:03:14;;;;;;;;;;;;;;;;;;6275991;28;20463;-83
2023/09/16 14:06:15;;;;;;;0.00;0.00;;;;;;;;;;6305218;28;21894;-84
2023/09/16 14:09:15;;;;;;;;;;;;;;;;;;6295309;28;20023;-83
2023/09/16 14:12:15;;;;;;;0.00;0.00;;;;;;;;;;6294373;28;19912;-84
2023/09/16 14:15:16;;;;;;;;;;;;;;;;;;6279543;28;20432;-83
2023/09/16 14:18:16;;;;;;;0.00;0.00;;;;;;;;;;6301565;28;19909;-83
2023/09/16 14:21:16;;;;;;;0.00;0.00;;;;;;;;;;6275123;28;20494;-83
2023/09/16 14:24:17;;;;;;;0.00;0.00;;;;;;;;;;6301443;28;20004;-84
2023/09/16 14:27:17;;;;;;;0.00;0.00;;;;;;;;;;6293343;28;20033;-83
2023/09/16 14:30:18;;;;;;;;;;;;;;;;;;6276791;28;20357;-83
2023/09/16 14:33:18;;;;;;;0.00;0.00;;;;;;;;;;6293183;28;19912;-83
2023/09/16 14:36:18;;;;;;;;;;;;;;;;;;6275037;28;20509;-83
2023/09/16 14:39:19;;;;;;;0.00;0.00;;;;;;;;;;6290692;28;20313;-83
2023/09/16 14:42:19;;;;;;;0.00;0.00;;;;;;;;;;6275679;28;20557;-83
2023/09/16 14:45:21;;;;;;;;;;;;;;;;;;6292420;28;20028;-83
2023/09/16 14:48:21;;;;;;;0.00;0.00;;;;;;;;;;6284899;28;19911;-84
2023/09/16 14:51:21;;;;;;;0.00;0.00;;;;;;;;;;6294034;28;20020;-83
2023/09/16 14:54:21;;;;;;;0.00;0.00;;;;;;;;;;6288875;28;20025;-83
2023/09/16 14:57:23;;;;;;;0.00;0.00;;;;;;;;;;6270777;28;20033;-83
2023/09/16 15:00:23;;;;;;;0.00;0.00;;;;;;;;;;6291303;28;20028;-83
2023/09/16 15:03:23;;;;;;;0.00;0.00;;;;;;;;;;6293565;28;20490;-83
2023/09/16 15:06:23;;;;;;;0.00;0.00;;;;;;;;;;6293276;28;20330;-83
2023/09/16 15:09:24;;;;;;;0.00;0.00;;;;;;;;;;6284036;28;20109;-83
2023/09/16 15:12:25;;;;;;;0.00;0.00;;;;;;;;;;6265840;28;20489;-82
2023/09/16 15:15:26;;;;;;;0.00;0.00;;;;;;;;;;6295879;28;20767;-82
2023/09/16 15:18:27;;;;;;;0.00;0.00;;;;;;;;;;6297003;28;20074;-82
2023/09/16 15:21:27;;;;;;;0.00;0.00;;;;;;;;;;6299208;28;20035;-83
2023/09/16 15:24:27;;;;;;;0.00;0.00;;;;;;;;;;6302102;28;20024;-83
2023/09/16 15:27:27;;;;;;;0.00;0.00;;;;;;;;;;6266329;28;20029;-82
2023/09/16 15:30:28;;;;;;;;;;;;;;;;;;6284872;28;20029;-83
2023/09/16 15:33:31;;;;;;;0.00;0.00;;;;;;;;;;6286800;28;19951;-84
2023/09/16 15:36:31;;;;;;;0.00;0.00;;;;;;;;;;6279580;28;20570;-84
2023/09/16 15:39:31;;;;;;;;;;;;;;;;;;6273573;28;20020;-83
2023/09/16 15:42:31;;;;;;;0.00;0.00;;;;;;;;;;6264461;28;19908;-83
2023/09/16 15:45:31;;;;;;;;;;;;;;;;;;6292977;28;20536;-83
2023/09/16 15:48:32;;;;;;;0.00;0.00;;;;;;;;;;6292637;28;20368;-84
2023/09/16 15:51:32;;;;;;;;;;;;;;;;;;6276695;28;20017;-84
2023/09/16 15:54:32;;;;;;;0.00;0.00;;;;;;;;;;6292718;28;19919;-84
2023/09/16 15:57:32;;;;;;;;;;;;;;;;;;6301126;28;20020;-83
2023/09/16 16:00:36;;;;;;;0.00;0.00;;;;;;;;;;6268119;28;20362;-83
2023/09/16 16:03:36;;;;;;;0.00;0.00;;;;;;;;;;6281403;28;20024;-83
2023/09/16 16:06:37;;;;;;;;;;;;;;;;;;6287921;28;20509;-90
2023/09/16 16:09:38;;;;;;;0.00;0.00;;;;;;;;;;6301229;28;20341;-88
2023/09/16 16:12:40;;;;;;;0.00;0.00;;;;;;;;;;6295172;28;20260;-90
2023/09/16 16:15:40;;;;;;;0.00;0.00;;;;;;;;;;6275541;28;20025;-89
2023/09/16 16:18:41;;;;;;;0.00;0.00;;;;;;;;;;6273294;28;20448;-90
2023/09/16 16:21:41;;;;;;;0.00;0.00;;;;;;;;;;6272889;28;20024;-90
2023/09/16 16:24:41;;;;;;;0.00;0.00;;;;;;;;;;6296415;28;20031;-89
2023/09/16 16:27:42;;;;;;;0.00;0.00;;;;;;;;;;6274122;28;20035;-90
2023/09/16 16:30:42;;;;;;;0.00;0.00;;;;;;;;;;6300911;28;20025;-90
2023/09/16 16:33:42;;;;;;;0.00;0.00;;;;;;;;;;6272325;28;20017;-90
2023/09/16 16:36:43;;;;;;;0.00;0.00;;;;;;;;;;6280113;28;20024;-89
2023/09/16 16:39:44;;;;;;;0.00;0.00;;;;;;;;;;6287042;28;20024;-90
2023/09/16 16:42:45;;;;;;;0.00;0.00;;;;;;;;;;6275921;28;20359;-90
2023/09/16 16:45:47;;;;;;;0.00;0.00;;;;;;;;;;6286028;28;20391;-89
2023/09/16 16:48:47;;;;;;;0.00;0.00;;;;;;;;;;6282038;28;20470;-90
2023/09/16 16:51:47;;;;;;;0.00;0.00;;;;;;;;;;6272493;28;20052;-89
2023/09/16 16:54:48;;;;;;;0.00;0.00;;;;;;;;;;6275391;28;20052;-89
2023/09/16 16:57:48;;;;;;;0.00;0.00;;;;;;;;;;6303322;28;20466;-89
2023/09/16 17:00:48;;;;;;;0.00;0.00;;;;;;;;;;6295566;28;20044;-89
2023/09/16 17:03:48;;;;;;;0.00;0.00;;;;;;;;;;6290174;28;20024;-90
2023/09/16 17:06:49;;;;;;;0.00;0.00;;;;;;;;;;6309284;28;20502;-89
2023/09/16 17:09:50;;;;;;;0.00;0.00;;;;;;;;;;6297981;28;20020;-89
2023/09/16 17:12:51;;;;;;;0.10;0.10;;;;;;;;;;6296553;28;20028;-89
2023/09/16 17:15:52;;;;;;;0.00;0.00;;;;;;;;;;6292674;28;20024;-82
2023/09/16 17:18:52;;;;;;;0.10;0.10;;;;;;;;;;6288645;28;20035;-83
2023/09/16 17:21:53;;;;;;;0.00;0.00;;;;;;;;;;6297359;28;20487;-83
2023/09/16 17:24:53;;;;;;;0.00;0.00;;;;;;;;;;6274929;28;20024;-83
2023/09/16 17:27:53;;;;;;;0.00;0.00;;;;;;;;;;6290799;28;20556;-83
2023/09/16 17:30:54;;;;;;;0.03;0.03;;;;;;;;;;6277863;28;20032;-82
2023/09/16 17:33:54;;;;;;;0.00;0.00;;;;;;;;;;6276888;28;20025;-82
2023/09/16 17:36:55;;;;;;;0.10;0.10;;;;;;;;;;6294549;28;20101;-82
2023/09/16 17:39:55;;;;;;;0.00;0.00;;;;;;;;;;6272644;28;20417;-82
2023/09/16 17:42:56;;;;;;;0.10;0.10;;;;;;;;;;6295342;28;20051;-82
2023/09/16 17:45:56;;;;;;;0.00;0.00;;;;;;;;;;6286658;28;20028;-82
2023/09/16 17:48:56;;;;;;;0.00;0.00;;;;;;;;;;6290343;28;20422;-82
2023/09/16 17:51:58;;;;;;;0.10;0.10;;;;;;;;;;6291788;28;20027;-82
2023/09/16 17:54:58;;;;;;;;;;;;;;;;;;6287101;28;20025;-83
2023/09/16 17:57:58;;;;;;;0.10;0.10;;;;;;;;;;6292972;28;20388;-82
2023/09/16 18:00:58;;;;;;;0.00;0.00;;;;;;;;;;6290185;28;20024;-82
2023/09/16 18:03:59;;;;;;;0.00;0.00;;;;;;;;;;6285091;28;20362;-83
2023/09/16 18:06:59;;;;;;;0.00;0.00;;;;;;;;;;6279007;28;20056;-83
2023/09/16 18:10:00;;;;;;;0.00;0.00;;;;;;;;;;6291536;28;20024;-83
2023/09/16 18:13:00;;;;;;;0.10;0.10;;;;;;;;;;6286976;28;20012;-83